createdAt,value
2023-02-23T00:01:54.349Z,0.66
2023-02-23T00:04:58.011Z,0.66
2023-02-23T00:08:02.085Z,0.66
2023-02-23T00:11:07.469Z,0.64
2023-02-23T00:14:10.631Z,0.62
2023-02-23T00:17:15.233Z,0.59
2023-02-23T00:20:25.345Z,0.55
2023-02-23T00:23:28.453Z,0.52
2023-02-23T00:26:35.762Z,0.50
2023-02-23T00:29:40.578Z,0.48
2023-02-23T00:32:43.940Z,0.44
2023-02-23T00:35:46.817Z,0.41
2023-02-23T00:38:58.162Z,0.39
2023-02-23T00:42:03.479Z,0.37
2023-02-23T00:45:11.433Z,0.35
2023-02-23T00:48:14.655Z,0.34
2023-02-23T00:51:19.560Z,0.33
2023-02-23T00:54:22.879Z,0.31
2023-02-23T00:57:25.783Z,0.29
2023-02-23T01:00:28.806Z,0.27
2023-02-23T01:03:31.861Z,0.25
2023-02-23T01:06:37.656Z,0.23
2023-02-23T01:09:40.950Z,0.21
2023-02-23T01:12:43.893Z,0.18
2023-02-23T01:15:48.255Z,0.18
2023-02-23T01:18:51.255Z,0.18
2023-02-23T01:21:54.247Z,0.17
2023-02-23T01:24:57.161Z,0.15
2023-02-23T01:28:00.406Z,0.13
2023-02-23T01:31:09.180Z,0.13
2023-02-23T01:34:13.954Z,0.11
2023-02-23T01:37:16.798Z,0.17
2023-02-23T01:40:31.445Z,0.24
2023-02-23T01:43:35.152Z,0.26
2023-02-23T01:46:43.747Z,0.27
2023-02-23T01:49:47.240Z,0.19
2023-02-23T01:52:52.355Z,0.10
2023-02-23T01:55:59.024Z,0.02
2023-02-23T01:59:06.693Z,-0.04
2023-02-23T02:02:10.202Z,-0.09
2023-02-23T02:05:18.623Z,-0.09
2023-02-23T02:08:31.134Z,-0.10
2023-02-23T02:11:37.344Z,-0.10
2023-02-23T02:14:45.730Z,-0.09
2023-02-23T02:18:18.819Z,-0.07
2023-02-23T02:22:09.665Z,-0.04
2023-02-23T02:25:44.458Z,-0.03
2023-02-23T02:29:31.419Z,-0.02
2023-02-23T02:33:03.412Z,0.01
2023-02-23T02:37:04.402Z,0.03
2023-02-23T02:40:25.517Z,0.05
2023-02-23T02:43:44.362Z,0.01
2023-02-23T02:47:01.307Z,0.04
2023-02-23T02:50:14.583Z,0.03
2023-02-23T02:53:41.896Z,-0.07
2023-02-23T02:56:57.683Z,-0.12
2023-02-23T03:00:32.934Z,-0.14
2023-02-23T03:04:45.502Z,-0.16
2023-02-23T03:09:00.582Z,-0.22
2023-02-23T03:13:24.489Z,-0.26
2023-02-23T03:17:52.697Z,-0.18
2023-02-23T03:22:10.745Z,-0.21
2023-02-23T03:26:15.513Z,-0.20
2023-02-23T03:30:28.936Z,-0.31
2023-02-23T03:34:26.804Z,-0.37
2023-02-23T03:38:12.824Z,-0.42
2023-02-23T03:42:02.781Z,-0.46
2023-02-23T03:45:52.302Z,-0.46
2023-02-23T03:49:29.588Z,-0.50
2023-02-23T03:57:38.703Z,-0.64
2023-02-23T04:01:32.861Z,-0.71
2023-02-23T04:05:01.830Z,-0.77
2023-02-23T04:21:51.051Z,-0.85
2023-02-23T04:25:00.342Z,-0.84
2023-02-23T04:28:07.127Z,-0.84
2023-02-23T04:31:24.965Z,-0.85
2023-02-23T04:34:34.266Z,-0.86
2023-02-23T04:37:44.724Z,-0.86
2023-02-23T04:40:55.846Z,-0.87
2023-02-23T04:44:03.398Z,-0.90
2023-02-23T04:47:15.651Z,-0.95
2023-02-23T04:50:32.610Z,-0.98
2023-02-23T04:53:42.439Z,-0.99
2023-02-23T04:56:58.102Z,-0.93
2023-02-23T05:00:05.111Z,-0.81
2023-02-23T05:03:17.693Z,-0.90
2023-02-23T05:06:27.013Z,-0.98
2023-02-23T05:09:37.187Z,-1.03
2023-02-23T05:12:46.768Z,-1.06
2023-02-23T05:15:50.363Z,-1.04
2023-02-23T05:18:55.744Z,-1.01
2023-02-23T05:21:58.752Z,-0.96
2023-02-23T05:25:01.891Z,-0.89
2023-02-23T05:28:05.788Z,-0.83
2023-02-23T05:31:39.718Z,-0.75
2023-02-23T05:35:11.486Z,-0.66
2023-02-23T05:38:15.271Z,-0.58
2023-02-23T05:41:26.774Z,-0.48
2023-02-23T05:45:00.905Z,-0.37
2023-02-23T05:48:20.773Z,-0.26
2023-02-23T05:51:33.054Z,-0.16
2023-02-23T05:54:42.726Z,-0.08
2023-02-23T05:57:57.573Z,-0.01
2023-02-23T06:01:13.137Z,0.08
2023-02-23T06:04:21.120Z,0.15
2023-02-23T06:07:28.840Z,0.23
2023-02-23T06:10:39.750Z,0.32
2023-02-23T06:20:07.559Z,0.61
2023-02-23T06:23:18.004Z,0.70
2023-02-23T06:26:28.841Z,0.79
2023-02-23T06:29:47.530Z,0.87
2023-02-23T06:33:06.800Z,0.97
2023-02-23T06:36:23.667Z,1.06
2023-02-23T06:39:46.746Z,1.13
2023-02-23T06:42:58.175Z,1.23
2023-02-23T06:46:17.263Z,1.34
2023-02-23T06:49:44.356Z,1.48
2023-02-23T06:53:14.417Z,1.62
2023-02-23T06:56:30.530Z,1.77
2023-02-23T06:59:49.544Z,1.88
2023-02-23T07:03:00.710Z,1.96
2023-02-23T07:06:27.019Z,2.05
2023-02-23T07:13:32.094Z,2.30
2023-02-23T07:25:34.294Z,3.14
2023-02-23T07:28:54.290Z,3.29
2023-02-23T07:32:14.684Z,3.32
2023-02-23T07:35:35.123Z,3.44
2023-02-23T07:38:56.907Z,3.56
2023-02-23T07:42:22.182Z,3.67
2023-02-23T07:45:43.684Z,3.85
2023-02-23T07:48:54.173Z,4.05
2023-02-23T07:52:18.572Z,4.21
2023-02-23T07:55:42.755Z,4.37
2023-02-23T07:59:03.757Z,4.55
2023-02-23T08:02:33.285Z,4.71
2023-02-23T08:05:40.780Z,4.80
2023-02-23T08:08:54.921Z,4.88
2023-02-23T08:12:20.811Z,5.04
2023-02-23T08:15:27.690Z,5.25
2023-02-23T08:18:47.542Z,5.45
2023-02-23T08:22:20.444Z,5.59
2023-02-23T08:25:29.881Z,5.68
2023-02-23T08:28:55.177Z,5.80
2023-02-23T08:32:02.878Z,5.94
2023-02-23T08:35:12.876Z,6.07
2023-02-23T08:38:32.165Z,6.18
2023-02-23T08:41:50.760Z,6.34
2023-02-23T08:45:00.288Z,6.49
2023-02-23T08:48:12.615Z,6.70
2023-02-23T08:51:27.073Z,6.90
2023-02-23T08:54:41.883Z,7.12
2023-02-23T08:57:58.777Z,7.35
2023-02-23T09:01:25.803Z,7.55
2023-02-23T09:04:47.765Z,7.71
2023-02-23T09:07:55.188Z,7.86
2023-02-23T09:11:07.091Z,7.94
2023-02-23T09:14:24.734Z,8.02
2023-02-23T09:17:32.275Z,8.19
2023-02-23T09:20:44.374Z,8.39
2023-02-23T09:23:57.320Z,8.59
2023-02-23T09:27:07.497Z,8.82
2023-02-23T09:30:30.551Z,9.80
2023-02-23T09:33:41.852Z,10.73
2023-02-23T09:37:02.868Z,10.89
2023-02-23T09:40:19.979Z,10.60
2023-02-23T09:43:31.551Z,10.43
2023-02-23T09:47:12.839Z,10.34
2023-02-23T09:50:28.441Z,10.35
2023-02-23T09:53:59.554Z,10.37
2023-02-23T09:57:19.080Z,10.46
2023-02-23T10:00:29.412Z,10.54
2023-02-23T10:04:17.755Z,10.64
2023-02-23T10:07:50.743Z,11.06
2023-02-23T10:11:12.982Z,11.58
2023-02-23T10:15:06.747Z,11.83
2023-02-23T10:18:44.980Z,11.46
2023-02-23T10:22:01.464Z,10.92
2023-02-23T10:25:14.836Z,10.57
2023-02-23T10:36:52.221Z,9.96
2023-02-23T10:40:04.791Z,9.94
2023-02-23T10:43:11.831Z,10.00
2023-02-23T10:46:23.261Z,10.05
2023-02-23T10:49:39.147Z,10.14
2023-02-23T10:52:52.444Z,10.26
2023-02-23T10:56:10.178Z,10.42
2023-02-23T10:59:32.468Z,10.49
2023-02-23T11:02:55.035Z,10.60
2023-02-23T11:06:48.516Z,10.74
2023-02-23T11:10:11.817Z,10.88
2023-02-23T11:14:11.045Z,11.03
2023-02-23T11:18:08.954Z,11.17
2023-02-23T11:21:50.341Z,11.34
2023-02-23T11:25:03.302Z,11.50
2023-02-23T11:28:35.385Z,11.65
2023-02-23T11:31:46.501Z,11.84
2023-02-23T11:35:56.949Z,11.97
2023-02-23T11:39:54.888Z,12.00
2023-02-23T11:43:20.232Z,12.08
2023-02-23T11:46:45.202Z,12.20
2023-02-23T11:50:07.634Z,12.29
2023-02-23T11:53:49.540Z,12.37
2023-02-23T11:57:19.387Z,12.38
2023-02-23T12:00:38.639Z,12.39
2023-02-23T12:03:47.805Z,12.32
2023-02-23T12:07:20.510Z,12.32
2023-02-23T12:10:46.820Z,12.35
2023-02-23T12:14:02.440Z,12.41
2023-02-23T12:17:23.248Z,12.47
2023-02-23T12:20:49.097Z,12.55
2023-02-23T12:24:20.363Z,12.58
2023-02-23T12:28:18.152Z,12.65
2023-02-23T12:32:05.179Z,12.83
2023-02-23T12:35:44.960Z,12.98
2023-02-23T12:39:27.382Z,13.15
2023-02-23T12:43:13.228Z,13.35
2023-02-23T12:46:30.195Z,13.49
2023-02-23T12:49:43.889Z,13.50
2023-02-23T13:07:07.528Z,13.97
2023-02-23T13:10:55.474Z,14.09
2023-02-23T13:14:41.291Z,14.24
2023-02-23T13:18:03.065Z,14.29
2023-02-23T13:21:39.284Z,14.30
2023-02-23T13:24:53.353Z,14.27
2023-02-23T13:28:02.278Z,14.17
2023-02-23T13:31:13.208Z,14.11
2023-02-23T13:34:43.623Z,14.01
2023-02-23T13:38:27.229Z,13.93
2023-02-23T13:42:37.218Z,13.87
2023-02-23T13:46:46.123Z,13.79
2023-02-23T13:50:33.224Z,13.66
2023-02-23T13:54:08.206Z,13.54
2023-02-23T13:57:19.195Z,13.48
2023-02-23T14:00:29.843Z,13.45
2023-02-23T14:04:12.766Z,13.41
2023-02-23T14:07:39.353Z,13.41
2023-02-23T14:11:05.618Z,13.38
2023-02-23T14:14:30.993Z,13.34
2023-02-23T14:18:34.731Z,13.26
2023-02-23T14:22:23.234Z,13.19
2023-02-23T14:26:32.422Z,13.09
2023-02-23T14:30:14.119Z,12.88
2023-02-23T14:34:25.644Z,12.72
2023-02-23T14:37:58.162Z,12.56
2023-02-23T14:41:05.678Z,12.43
2023-02-23T14:44:29.496Z,12.30
2023-02-23T14:48:00.048Z,12.13
2023-02-23T14:51:55.166Z,11.97
2023-02-23T14:55:34.267Z,11.81
2023-02-23T14:59:02.364Z,11.66
2023-02-23T15:02:54.412Z,11.52
2023-02-23T15:06:16.378Z,11.34
2023-02-23T15:10:02.901Z,11.20
2023-02-23T15:13:34.591Z,11.02
2023-02-23T15:16:56.746Z,10.87
2023-02-23T15:20:32.654Z,10.76
2023-02-23T15:24:16.636Z,10.62
2023-02-23T15:27:43.092Z,10.47
2023-02-23T15:31:12.977Z,10.32
2023-02-23T15:35:04.649Z,10.19
2023-02-23T15:38:43.387Z,10.02
2023-02-23T15:42:12.017Z,9.88
2023-02-23T15:45:34.815Z,9.76
2023-02-23T15:49:41.805Z,9.67
2023-02-23T15:54:14.800Z,9.48
2023-02-23T15:58:41.692Z,9.29
2023-02-23T16:02:14.811Z,9.13
2023-02-23T16:05:35.403Z,9.00
2023-02-23T16:08:58.573Z,8.89
2023-02-23T16:12:36.400Z,8.76
2023-02-23T16:15:56.007Z,8.61
2023-02-23T16:19:20.838Z,8.48
2023-02-23T16:22:42.292Z,8.38
2023-02-23T16:25:54.752Z,8.30
2023-02-23T16:29:22.177Z,8.23
2023-02-23T16:33:19.456Z,8.16
2023-02-23T16:37:18.810Z,8.06
2023-02-23T16:41:07.417Z,7.97
2023-02-23T16:44:55.152Z,7.91
2023-02-23T16:48:59.712Z,7.84
2023-02-23T16:52:24.022Z,7.78
2023-02-23T16:56:03.520Z,7.74
2023-02-23T16:59:31.289Z,7.69
2023-02-23T17:04:00.120Z,7.70
2023-02-23T17:07:25.664Z,7.98
2023-02-23T17:11:01.069Z,7.98
2023-02-23T17:14:25.748Z,7.93
2023-02-23T17:17:49.933Z,7.88
2023-02-23T17:21:20.714Z,7.86
2023-02-23T17:24:47.843Z,7.86
2023-02-23T17:28:03.185Z,7.85
2023-02-23T17:31:25.737Z,7.84
2023-02-23T17:34:43.733Z,7.85
2023-02-23T17:38:40.467Z,7.84
2023-02-23T17:42:09.674Z,7.83
2023-02-23T17:45:26.696Z,7.83
2023-02-23T17:49:11.982Z,7.82
2023-02-23T17:52:36.154Z,7.77
2023-02-23T17:56:18.026Z,7.73
2023-02-23T17:59:39.401Z,7.68
2023-02-23T18:03:00.994Z,7.63
2023-02-23T18:06:31.013Z,7.59
2023-02-23T18:09:54.374Z,7.57
2023-02-23T18:13:20.399Z,7.54
2023-02-23T18:16:45.945Z,7.52
2023-02-23T18:20:38.105Z,7.51
2023-02-23T18:23:42.438Z,7.52
2023-02-23T18:26:46.217Z,7.51
2023-02-23T18:29:52.100Z,7.51
2023-02-23T18:33:01.113Z,7.49
2023-02-23T18:36:37.399Z,7.47
2023-02-23T18:39:40.735Z,7.42
2023-02-23T18:42:44.568Z,7.38
2023-02-23T18:45:48.830Z,7.32
2023-02-23T18:48:52.404Z,7.27
2023-02-23T18:51:55.662Z,7.21
2023-02-23T18:54:58.600Z,7.15
2023-02-23T18:58:03.202Z,7.13
2023-02-23T19:01:21.057Z,7.50
2023-02-23T19:04:24.603Z,7.85
2023-02-23T19:07:27.936Z,7.90
2023-02-23T19:10:31.606Z,7.90
2023-02-23T19:13:38.096Z,7.89
2023-02-23T19:16:41.989Z,7.70
2023-02-23T19:19:44.871Z,7.52
2023-02-23T19:22:48.218Z,7.34
2023-02-23T19:25:52.153Z,7.19
2023-02-23T19:29:11.910Z,7.08
2023-02-23T19:32:16.642Z,6.95
2023-02-23T19:35:20.878Z,6.84
2023-02-23T19:38:23.897Z,6.75
2023-02-23T19:41:27.466Z,6.68
2023-02-23T19:44:30.929Z,6.63
2023-02-23T19:47:33.851Z,6.62
2023-02-23T19:50:37.234Z,6.60
2023-02-23T19:53:41.562Z,6.60
2023-02-23T19:56:44.984Z,6.61
2023-02-23T19:59:48.040Z,6.63
2023-02-23T20:02:57.706Z,6.65
2023-02-23T20:06:06.753Z,6.68
2023-02-23T20:09:09.748Z,6.71
2023-02-23T20:12:13.808Z,6.73
2023-02-23T20:15:16.708Z,6.74
2023-02-23T20:18:21.070Z,6.76
2023-02-23T20:21:30.388Z,6.79
2023-02-23T20:24:33.557Z,6.84
2023-02-23T20:27:36.922Z,6.90
2023-02-23T20:30:39.821Z,6.95
2023-02-23T20:33:43.034Z,7.03
2023-02-23T20:36:46.751Z,7.14
2023-02-23T20:39:49.901Z,7.22
2023-02-23T20:42:52.923Z,7.23
2023-02-23T20:45:58.232Z,7.22
2023-02-23T20:49:01.414Z,7.27
2023-02-23T20:52:05.278Z,7.32
2023-02-23T20:55:09.829Z,7.32
2023-02-23T20:58:14.351Z,7.32
2023-02-23T21:01:34.273Z,7.33
2023-02-23T21:04:38.834Z,7.36
2023-02-23T21:07:42.073Z,7.39
2023-02-23T21:10:46.034Z,7.41
2023-02-23T21:13:48.902Z,7.43
2023-02-23T21:16:51.650Z,7.47
2023-02-23T21:19:54.490Z,7.49
2023-02-23T21:22:57.892Z,7.51
2023-02-23T21:26:07.564Z,7.52
2023-02-23T21:29:15.291Z,7.54
2023-02-23T21:32:18.568Z,7.55
2023-02-23T21:35:21.903Z,7.56
2023-02-23T21:38:25.988Z,7.55
2023-02-23T21:41:34.774Z,7.53
2023-02-23T21:44:37.706Z,7.50
2023-02-23T21:47:44.251Z,7.46
2023-02-23T21:50:47.962Z,7.42
2023-02-23T21:53:51.072Z,7.39
2023-02-23T21:56:53.984Z,7.37
2023-02-23T21:59:57.428Z,7.36
2023-02-23T22:03:00.349Z,7.36
2023-02-23T22:06:03.678Z,7.39
2023-02-23T22:09:11.448Z,7.41
2023-02-23T22:12:14.482Z,7.43
2023-02-23T22:15:18.250Z,7.45
2023-02-23T22:18:23.310Z,7.49
2023-02-23T22:21:29.074Z,7.51
2023-02-23T22:24:34.268Z,7.53
2023-02-23T22:27:38.045Z,7.55
2023-02-23T22:30:44.747Z,7.57
2023-02-23T22:33:47.557Z,7.59
2023-02-23T22:36:50.656Z,7.60
2023-02-23T22:39:54.128Z,7.63
2023-02-23T22:42:57.485Z,7.65
2023-02-23T22:46:00.947Z,7.68
2023-02-23T22:49:04.804Z,7.70
2023-02-23T22:52:07.575Z,7.71
2023-02-23T22:55:11.185Z,7.73
2023-02-23T22:58:15.242Z,7.73
2023-02-23T23:02:14.486Z,7.71
2023-02-23T23:05:26.428Z,7.69
2023-02-23T23:08:36.479Z,7.65
2023-02-23T23:11:43.139Z,7.61
2023-02-23T23:14:48.010Z,7.58
2023-02-23T23:17:50.908Z,7.56
2023-02-23T23:20:55.877Z,7.53
2023-02-23T23:24:01.361Z,7.49
2023-02-23T23:27:08.259Z,7.47
2023-02-23T23:30:12.021Z,7.46
2023-02-23T23:33:15.356Z,7.45
2023-02-23T23:36:23.386Z,7.41
2023-02-23T23:39:26.538Z,7.37
2023-02-23T23:42:29.757Z,7.36
2023-02-23T23:45:38.207Z,7.36
2023-02-23T23:48:42.221Z,7.35
2023-02-23T23:51:49.928Z,7.33
2023-02-23T23:54:52.672Z,7.32
2023-02-23T23:57:55.528Z,7.29
